Time;durP1;ratioP1;P1;durP2;ratioP2;P2;SDS_P1;SDS_P2;PMS_P1;PMS_P2;Temp;Humidity;BMP_temperature;BMP_pressure;BME280_temperature;BME280_humidity;BME280_pressure;Samples;Min_cycle;Max_cycle;Signal;HPM_P1;HPM_P2
2023/05/19 00:01:46;;;;;;;;;;;13.80;99.90;;;;;;5074224;28;20058;-62
2023/05/19 00:04:13;;;;;;;;;;;13.80;99.90;;;;;;5074157;28;19988;-62
2023/05/19 00:06:40;;;;;;;;;;;13.80;99.90;;;;;;5074249;28;20444;-62
2023/05/19 00:09:09;;;;;;;;;;;13.90;99.90;;;;;;5073455;28;20084;-62
2023/05/19 00:11:35;;;;;;;;;;;13.80;99.90;;;;;;5073670;28;20080;-62
2023/05/19 00:14:01;;;;;;;;;;;13.80;99.90;;;;;;5074002;28;19981;-62
2023/05/19 00:16:27;;;;;;;;;;;13.80;99.90;;;;;;5074093;28;20039;-62
2023/05/19 00:18:53;;;;;;;;;;;13.90;99.90;;;;;;5074175;28;19989;-62
2023/05/19 00:21:19;;;;;;;;;;;13.90;99.90;;;;;;5073917;28;20481;-62
2023/05/19 00:23:45;;;;;;;;;;;13.90;99.90;;;;;;5074005;28;19985;-62
2023/05/19 00:26:10;;;;;;;;;;;14.00;99.90;;;;;;5073672;28;20474;-62
2023/05/19 00:28:36;;;;;;;;;;;14.00;99.90;;;;;;5073778;28;20050;-62
2023/05/19 00:31:03;;;;;;;;;;;14.00;99.90;;;;;;5073630;28;19981;-62
2023/05/19 00:33:28;;;;;;;;;;;14.00;99.90;;;;;;5073968;28;19985;-62
2023/05/19 00:35:54;;;;;;;;;;;14.00;99.90;;;;;;5073684;28;20013;-62
2023/05/19 00:38:20;;;;;;;;;;;14.00;99.90;;;;;;5073567;28;20033;-62
2023/05/19 00:40:45;;;;;;;;;;;13.90;99.90;;;;;;5073461;28;20531;-62
2023/05/19 00:43:11;;;;;;;;;;;14.00;99.90;;;;;;5073721;28;20395;-62
2023/05/19 00:45:37;;;;;;;;;;;13.90;99.90;;;;;;5073670;28;19982;-62
2023/05/19 00:48:02;;;;;;;;;;;13.90;99.90;;;;;;5073583;28;20060;-62
2023/05/19 00:50:28;;;;;;;;;;;14.00;99.90;;;;;;5073466;28;20055;-62
2023/05/19 00:52:54;;;;;;;;;;;14.00;99.90;;;;;;5073609;28;19982;-62
2023/05/19 00:55:22;;;;;;;;;;;14.00;99.90;;;;;;5073483;28;20436;-62
2023/05/19 00:57:48;;;;;;;;;;;14.00;99.90;;;;;;5073411;28;19986;-62
2023/05/19 01:00:14;;;;;;;;;;;14.00;99.90;;;;;;5073455;28;19982;-62
2023/05/19 01:02:40;;;;;;;;;;;14.00;99.90;;;;;;5073322;28;20325;-62
2023/05/19 01:05:06;;;;;;;;;;;14.00;99.90;;;;;;5073478;28;20035;-62
2023/05/19 01:07:31;;;;;;;;;;;14.00;99.90;;;;;;5073231;28;20009;-62
2023/05/19 01:09:57;;;;;;;;;;;14.00;99.90;;;;;;5073073;28;20048;-62
2023/05/19 01:12:23;;;;;;;;;;;14.00;99.90;;;;;;5073448;28;19996;-62
2023/05/19 01:14:48;;;;;;;;;;;14.00;99.90;;;;;;5073309;28;19982;-62
2023/05/19 01:17:21;;;;;;;;;;;14.00;99.90;;;;;;5073288;28;19988;-62
2023/05/19 01:19:47;;;;;;;;;;;14.00;99.90;;;;;;5073541;28;19992;-62
2023/05/19 01:22:12;;;;;;;;;;;14.00;99.90;;;;;;5075188;28;20007;-62
2023/05/19 01:24:41;;;;;;;;;;;14.00;99.90;;;;;;5076982;28;19986;-62
2023/05/19 01:27:25;;;;;;;;;;;14.00;99.90;;;;;;5076886;28;20016;-62
2023/05/19 01:29:50;;;;;;;;;;;14.00;99.90;;;;;;5076906;28;20458;-62
2023/05/19 01:32:18;;;;;;;;;;;13.90;99.90;;;;;;5076767;28;19989;-62
2023/05/19 01:34:45;;;;;;;;;;;13.80;99.90;;;;;;5077084;28;20032;-62
2023/05/19 01:37:12;;;;;;;;;;;13.80;99.90;;;;;;5076371;28;19982;-62
2023/05/19 01:39:38;;;;;;;;;;;13.80;99.90;;;;;;5076677;28;20179;-62
2023/05/19 01:42:04;;;;;;;;;;;13.80;99.90;;;;;;5076914;28;19986;-62
2023/05/19 01:44:30;;;;;;;;;;;13.80;99.90;;;;;;5076633;28;20407;-62
2023/05/19 01:46:56;;;;;;;;;;;13.80;99.90;;;;;;5076794;28;20013;-62
2023/05/19 01:49:21;;;;;;;;;;;13.80;99.90;;;;;;5076818;28;20013;-62
2023/05/19 01:51:48;;;;;;;;;;;13.90;99.90;;;;;;5076560;28;20364;-62
2023/05/19 01:54:13;;;;;;;;;;;13.90;99.90;;;;;;5076254;28;19981;-62
2023/05/19 01:56:51;;;;;;;;;;;13.80;99.90;;;;;;5076744;28;20095;-62
2023/05/19 01:59:26;;;;;;;;;;;13.90;99.90;;;;;;5076489;28;19985;-62
2023/05/19 02:01:53;;;;;;;;;;;13.90;99.90;;;;;;5076508;28;19987;-62
2023/05/19 02:04:26;;;;;;;;;;;13.90;99.90;;;;;;5076378;28;20039;-62
2023/05/19 02:06:58;;;;;;;;;;;14.00;99.90;;;;;;5076008;28;20054;-62
2023/05/19 02:09:42;;;;;;;;;;;13.90;99.90;;;;;;5076351;28;20490;-62
2023/05/19 02:12:17;;;;;;;;;;;14.00;99.90;;;;;;5076217;28;20430;-62
2023/05/19 02:14:53;;;;;;;;;;;13.90;99.90;;;;;;5076246;28;19988;-62
2023/05/19 02:17:19;;;;;;;;;;;13.90;99.90;;;;;;5076003;28;20035;-62
2023/05/19 02:19:45;;;;;;;;;;;13.90;99.90;;;;;;5076050;28;20351;-61
2023/05/19 02:22:11;;;;;;;;;;;13.90;99.90;;;;;;5075898;28;20028;-62
2023/05/19 02:24:38;;;;;;;;;;;13.90;99.90;;;;;;5075713;28;19985;-62
2023/05/19 02:27:03;;;;;;;;;;;13.90;99.90;;;;;;5075986;28;20059;-62
2023/05/19 02:29:29;;;;;;;;;;;13.90;99.90;;;;;;5076106;28;19985;-62
2023/05/19 02:31:55;;;;;;;;;;;13.90;99.90;;;;;;5075562;28;19985;-62
2023/05/19 02:34:20;;;;;;;;;;;13.80;99.90;;;;;;5075599;28;19983;-62
2023/05/19 02:36:48;;;;;;;;;;;13.80;99.90;;;;;;5075981;28;19989;-62
2023/05/19 02:39:14;;;;;;;;;;;13.80;99.90;;;;;;5075544;28;20112;-62
2023/05/19 02:41:40;;;;;;;;;;;13.70;99.90;;;;;;5075564;28;20416;-62
2023/05/19 02:44:06;;;;;;;;;;;13.70;99.90;;;;;;5076123;28;19985;-62
2023/05/19 02:46:32;;;;;;;;;;;13.80;99.90;;;;;;5075407;28;20053;-62
2023/05/19 02:48:57;;;;;;;;;;;13.80;99.90;;;;;;5075382;28;20029;-62
2023/05/19 02:51:23;;;;;;;;;;;13.80;99.90;;;;;;5075356;28;19988;-62
2023/05/19 02:53:48;;;;;;;;;;;13.80;99.90;;;;;;5075636;28;20412;-62
2023/05/19 02:56:14;;;;;;;;;;;13.80;99.90;;;;;;5075570;28;19985;-62
2023/05/19 02:58:41;;;;;;;;;;;13.90;99.90;;;;;;5075583;28;20440;-62
2023/05/19 03:01:07;;;;;;;;;;;13.80;99.90;;;;;;5075253;28;19982;-61
2023/05/19 03:03:33;;;;;;;;;;;13.80;99.90;;;;;;5075046;28;19985;-62
2023/05/19 03:05:58;;;;;;;;;;;13.80;99.90;;;;;;5075165;28;20072;-62
2023/05/19 03:08:24;;;;;;;;;;;13.80;99.90;;;;;;5075054;28;20349;-62
2023/05/19 03:10:50;;;;;;;;;;;13.80;99.90;;;;;;5075316;28;20402;-62
2023/05/19 03:13:15;;;;;;;;;;;13.80;99.90;;;;;;5075232;28;20348;-62
2023/05/19 03:15:41;;;;;;;;;;;13.80;99.90;;;;;;5075069;28;20047;-61
2023/05/19 03:18:07;;;;;;;;;;;13.90;99.90;;;;;;5074964;28;20083;-62
2023/05/19 03:20:32;;;;;;;;;;;13.90;99.90;;;;;;5074486;28;19982;-62
2023/05/19 03:22:58;;;;;;;;;;;13.90;99.90;;;;;;5075061;28;19985;-62
2023/05/19 03:25:24;;;;;;;;;;;14.00;99.90;;;;;;5074753;28;19997;-62
2023/05/19 03:27:50;;;;;;;;;;;13.90;99.90;;;;;;5074842;28;20051;-61
2023/05/19 03:30:16;;;;;;;;;;;13.90;99.90;;;;;;5074740;28;20468;-62
2023/05/19 03:32:41;;;;;;;;;;;13.90;99.90;;;;;;5074596;28;19982;-62
2023/05/19 03:35:07;;;;;;;;;;;13.90;99.90;;;;;;5074532;28;19985;-62
2023/05/19 03:37:32;;;;;;;;;;;13.80;99.90;;;;;;5074372;28;20018;-62
2023/05/19 03:39:58;;;;;;;;;;;13.80;99.90;;;;;;5074480;28;20462;-62
2023/05/19 03:42:24;;;;;;;;;;;13.70;99.90;;;;;;5074367;28;19988;-62
2023/05/19 03:44:50;;;;;;;;;;;13.80;99.90;;;;;;5073570;28;20080;-62
2023/05/19 03:47:16;;;;;;;;;;;13.80;99.90;;;;;;5074316;28;20005;-62
2023/05/19 03:49:41;;;;;;;;;;;13.90;99.90;;;;;;5074061;28;19981;-62
2023/05/19 03:52:07;;;;;;;;;;;13.90;99.90;;;;;;5074122;28;20008;-62
2023/05/19 03:54:32;;;;;;;;;;;13.90;99.90;;;;;;5074345;28;19982;-62
2023/05/19 03:56:58;;;;;;;;;;;13.90;99.90;;;;;;5074095;28;20031;-62
2023/05/19 03:59:23;;;;;;;;;;;14.00;99.90;;;;;;5074109;28;20080;-62
2023/05/19 04:01:50;;;;;;;;;;;13.90;99.90;;;;;;5074403;28;19992;-62
2023/05/19 04:04:15;;;;;;;;;;;13.90;99.90;;;;;;5073974;28;19981;-62
2023/05/19 04:06:41;;;;;;;;;;;13.90;99.90;;;;;;5073933;28;20444;-62
2023/05/19 04:09:10;;;;;;;;;;;13.80;99.90;;;;;;5074277;28;20083;-62
2023/05/19 04:11:36;;;;;;;;;;;13.80;99.90;;;;;;5073972;28;19981;-62
2023/05/19 04:14:01;;;;;;;;;;;13.80;99.90;;;;;;5073941;28;19989;-62
2023/05/19 04:16:27;;;;;;;;;;;13.80;99.90;;;;;;5073821;28;19981;-62
2023/05/19 04:18:52;;;;;;;;;;;13.80;99.90;;;;;;5073961;28;19985;-62
2023/05/19 04:21:20;;;;;;;;;;;13.80;99.90;;;;;;5073828;28;20428;-62
2023/05/19 04:23:45;;;;;;;;;;;13.90;99.90;;;;;;5073727;28;19981;-62
2023/05/19 04:26:13;;;;;;;;;;;14.00;99.90;;;;;;5073819;28;19998;-62
2023/05/19 04:28:41;;;;;;;;;;;14.00;99.90;;;;;;5073718;28;20005;-62
2023/05/19 04:31:09;;;;;;;;;;;14.00;99.90;;;;;;5073643;28;19985;-62
2023/05/19 04:33:38;;;;;;;;;;;14.00;99.90;;;;;;5073548;28;19988;-62
2023/05/19 04:36:07;;;;;;;;;;;13.90;99.90;;;;;;5073664;28;19981;-62
2023/05/19 04:38:36;;;;;;;;;;;13.80;99.90;;;;;;5073581;28;20086;-62
2023/05/19 04:41:02;;;;;;;;;;;13.80;99.90;;;;;;5073725;28;20352;-62
2023/05/19 04:43:28;;;;;;;;;;;13.80;99.90;;;;;;5073640;28;20438;-62
2023/05/19 04:45:54;;;;;;;;;;;13.80;99.90;;;;;;5073478;28;19981;-62
2023/05/19 04:48:22;;;;;;;;;;;13.90;99.90;;;;;;5073235;28;20013;-62
2023/05/19 04:50:50;;;;;;;;;;;13.90;99.90;;;;;;5073572;28;19989;-62
2023/05/19 04:53:16;;;;;;;;;;;14.00;99.90;;;;;;5073167;28;20392;-62
2023/05/19 04:55:42;;;;;;;;;;;14.00;99.90;;;;;;5074585;28;20072;-62
2023/05/19 04:58:08;;;;;;;;;;;14.10;99.90;;;;;;5077444;28;19986;-62
2023/05/19 05:00:34;;;;;;;;;;;14.20;99.90;;;;;;5077439;28;20051;-61
2023/05/19 05:03:03;;;;;;;;;;;14.20;99.90;;;;;;5077523;28;19986;-61
2023/05/19 05:05:29;;;;;;;;;;;14.20;99.90;;;;;;5076923;28;20497;-61
2023/05/19 05:07:56;;;;;;;;;;;14.20;99.90;;;;;;5076330;28;20005;-62
2023/05/19 05:10:22;;;;;;;;;;;14.20;99.90;;;;;;5077317;28;20477;-62
2023/05/19 05:12:47;;;;;;;;;;;14.30;99.90;;;;;;5076536;28;20072;-62
2023/05/19 05:15:13;;;;;;;;;;;14.30;99.90;;;;;;5077075;28;20075;-62
2023/05/19 05:17:39;;;;;;;;;;;14.30;99.90;;;;;;5076846;28;19997;-63
2023/05/19 05:20:05;;;;;;;;;;;14.30;99.90;;;;;;5076970;28;19982;-62
2023/05/19 05:22:31;;;;;;;;;;;14.30;99.90;;;;;;5075299;28;20092;-62
2023/05/19 05:24:57;;;;;;;;;;;14.40;99.90;;;;;;5076266;28;20037;-62
2023/05/19 05:27:22;;;;;;;;;;;14.40;99.90;;;;;;5076905;28;20016;-62
2023/05/19 05:29:48;;;;;;;;;;;14.50;99.90;;;;;;5076612;28;20491;-61
2023/05/19 05:32:15;;;;;;;;;;;14.60;99.90;;;;;;5076690;28;20428;-62
2023/05/19 05:34:41;;;;;;;;;;;14.60;99.90;;;;;;5076175;28;19996;-62
2023/05/19 05:37:07;;;;;;;;;;;14.70;99.90;;;;;;5075696;28;19982;-62
2023/05/19 05:39:32;;;;;;;;;;;14.70;99.90;;;;;;5110915;28;20020;-62
2023/05/19 05:41:58;;;;;;;;;;;14.90;99.90;;;;;;5116878;28;19981;-62
2023/05/19 05:44:23;;;;;;;;;;;15.00;99.90;;;;;;5115792;28;19984;-62
2023/05/19 05:46:49;;;;;;;;;;;15.00;99.90;;;;;;5116873;28;20047;-62
2023/05/19 05:49:15;;;;;;;;;;;15.00;99.90;;;;;;5116893;28;19980;-62
2023/05/19 05:51:40;;;;;;;;;;;15.10;99.90;;;;;;5116964;28;19987;-62
2023/05/19 05:54:06;;;;;;;;;;;15.20;99.90;;;;;;5116925;28;20010;-62
2023/05/19 05:56:32;;;;;;;;;;;15.20;99.90;;;;;;5116783;28;20024;-62
2023/05/19 05:58:58;;;;;;;;;;;15.40;99.90;;;;;;5116167;28;19983;-62
2023/05/19 06:01:24;;;;;;;;;;;15.50;99.90;;;;;;5116905;28;19981;-61
2023/05/19 06:03:49;;;;;;;;;;;15.60;99.90;;;;;;5116987;28;19982;-61
2023/05/19 06:06:15;;;;;;;;;;;15.60;99.90;;;;;;5116943;28;19981;-61
2023/05/19 06:08:40;;;;;;;;;;;15.60;99.90;;;;;;5115891;28;20454;-62
2023/05/19 06:11:09;;;;;;;;;;;15.70;99.90;;;;;;5116915;28;19989;-62
2023/05/19 06:13:35;;;;;;;;;;;15.80;99.90;;;;;;5116553;28;20427;-61
2023/05/19 06:16:01;;;;;;;;;;;15.80;99.90;;;;;;5116036;28;20037;-61
2023/05/19 06:18:26;;;;;;;;;;;15.90;99.90;;;;;;5116402;28;19984;-62
2023/05/19 06:20:52;;;;;;;;;;;15.90;99.90;;;;;;5116384;28;19988;-61
2023/05/19 06:23:18;;;;;;;;;;;15.90;99.90;;;;;;5116678;28;19984;-62
2023/05/19 06:25:43;;;;;;;;;;;15.80;99.90;;;;;;5116556;28;20000;-62
2023/05/19 06:28:09;;;;;;;;;;;15.80;99.90;;;;;;5115384;28;20299;-61
2023/05/19 06:30:35;;;;;;;;;;;15.70;99.90;;;;;;5116371;28;20443;-61
2023/05/19 06:33:02;;;;;;;;;;;15.60;99.90;;;;;;5116279;28;19991;-62
2023/05/19 06:35:28;;;;;;;;;;;15.60;99.90;;;;;;5116428;28;20039;-61
2023/05/19 06:37:55;;;;;;;;;;;15.60;99.90;;;;;;5115609;28;20051;-62
2023/05/19 06:40:21;;;;;;;;;;;15.80;99.90;;;;;;5113648;28;20422;-62
2023/05/19 06:42:46;;;;;;;;;;;16.00;99.90;;;;;;5114057;28;20019;-62
2023/05/19 06:45:12;;;;;;;;;;;16.10;99.90;;;;;;5113099;28;20023;-62
2023/05/19 06:47:40;;;;;;;;;;;16.20;99.90;;;;;;5113337;28;20571;-61
2023/05/19 06:50:06;;;;;;;;;;;16.30;99.90;;;;;;5114038;28;19981;-61
2023/05/19 06:52:31;;;;;;;;;;;16.40;99.90;;;;;;5101691;28;20496;-62
2023/05/19 06:54:57;;;;;;;;;;;16.30;99.90;;;;;;5094254;28;19991;-62
2023/05/19 06:57:22;;;;;;;;;;;16.30;99.90;;;;;;5094452;28;19985;-61
2023/05/19 06:59:48;;;;;;;;;;;16.30;99.90;;;;;;5094406;28;20020;-62
2023/05/19 07:02:13;;;;;;;;;;;16.50;99.90;;;;;;5093310;28;19985;-62
2023/05/19 07:04:39;;;;;;;;;;;16.50;99.90;;;;;;5093697;28;20403;-63
2023/05/19 07:07:05;;;;;;;;;;;16.60;99.90;;;;;;5091451;28;20601;-63
2023/05/19 07:09:37;;;;;;;;;;;16.60;99.90;;;;;;5090983;28;19990;-63
2023/05/19 07:12:02;;;;;;;;;;;16.70;99.90;;;;;;5092033;28;20020;-63
2023/05/19 07:14:28;;;;;;;;;;;16.80;99.90;;;;;;5089528;28;20450;-62
2023/05/19 07:16:53;;;;;;;;;;;16.80;99.90;;;;;;5088501;28;19989;-63
2023/05/19 07:19:19;;;;;;;;;;;16.80;99.90;;;;;;5089884;28;20088;-63
2023/05/19 07:21:45;;;;;;;;;;;16.80;99.90;;;;;;5082870;28;19989;-63
2023/05/19 07:24:11;;;;;;;;;;;16.80;99.90;;;;;;5085594;28;19985;-63
2023/05/19 07:26:36;;;;;;;;;;;16.80;99.90;;;;;;5085183;28;20344;-62
2023/05/19 07:29:02;;;;;;;;;;;16.80;99.90;;;;;;5081719;28;19985;-62
2023/05/19 07:31:28;;;;;;;;;;;16.80;99.90;;;;;;5078454;28;20031;-62
2023/05/19 07:33:53;;;;;;;;;;;16.90;99.90;;;;;;5093064;28;20042;-62
2023/05/19 07:36:19;;;;;;;;;;;16.90;99.90;;;;;;5089592;28;19993;-62
2023/05/19 07:38:45;;;;;;;;;;;16.80;99.90;;;;;;5088375;28;20390;-63
2023/05/19 07:41:15;;;;;;;;;;;16.50;99.90;;;;;;5090617;28;20088;-62
2023/05/19 07:43:41;;;;;;;;;;;16.40;99.90;;;;;;5088109;28;19993;-63
2023/05/19 07:46:07;;;;;;;;;;;16.40;99.90;;;;;;5089188;28;19996;-63
2023/05/19 07:48:32;;;;;;;;;;;16.40;99.90;;;;;;5084113;28;20015;-63
2023/05/19 07:51:08;;;;;;;;;;;16.40;99.90;;;;;;5087768;28;20342;-62
2023/05/19 07:53:37;;;;;;;;;;;16.50;99.90;;;;;;5087476;28;19993;-64
2023/05/19 07:56:08;;;;;;;;;;;16.50;99.90;;;;;;5088520;28;20018;-63
2023/05/19 07:58:36;;;;;;;;;;;16.50;99.90;;;;;;5085835;28;19992;-63
2023/05/19 08:01:24;;;;;;;;;;;16.50;99.90;;;;;;5083608;28;19992;-62
2023/05/19 08:03:55;;;;;;;;;;;16.60;99.90;;;;;;5084253;28;20000;-64
2023/05/19 08:06:37;;;;;;;;;;;16.60;99.90;;;;;;5083468;28;20427;-63
2023/05/19 08:09:05;;;;;;;;;;;16.60;99.90;;;;;;5078495;28;20493;-63
2023/05/19 08:11:48;;;;;;;;;;;16.60;99.90;;;;;;5082865;28;20464;-63
2023/05/19 08:14:16;;;;;;;;;;;16.50;99.90;;;;;;5078260;28;19992;-63
2023/05/19 08:16:42;;;;;;;;;;;16.60;99.90;;;;;;5084764;28;20329;-63
2023/05/19 08:19:17;;;;;;;;;;;16.70;99.90;;;;;;5084769;28;19985;-62
2023/05/19 08:21:51;;;;;;;;;;;16.70;99.90;;;;;;5086739;28;19988;-63
2023/05/19 08:24:18;;;;;;;;;;;16.60;99.90;;;;;;5084947;28;20057;-61
2023/05/19 08:26:45;;;;;;;;;;;16.50;99.90;;;;;;5081614;28;19993;-62
2023/05/19 08:29:11;;;;;;;;;;;16.50;99.90;;;;;;5082137;28;19986;-61
2023/05/19 08:31:45;;;;;;;;;;;16.50;99.90;;;;;;5084281;28;20058;-61
2023/05/19 08:34:12;;;;;;;;;;;16.50;99.90;;;;;;5075473;28;20038;-61
2023/05/19 08:36:39;;;;;;;;;;;16.50;99.90;;;;;;5080304;28;20439;-61
2023/05/19 08:39:05;;;;;;;;;;;16.50;99.90;;;;;;5078827;28;20013;-61
2023/05/19 08:41:32;;;;;;;;;;;16.40;99.90;;;;;;5077532;28;20124;-60
2023/05/19 08:43:58;;;;;;;;;;;16.30;99.90;;;;;;5085502;28;20719;-63
2023/05/19 08:46:30;;;;;;;;;;;16.30;99.90;;;;;;5076346;28;19997;-61
2023/05/19 08:49:11;;;;;;;;;;;16.30;99.90;;;;;;5070346;28;20048;-62
2023/05/19 08:51:42;;;;;;;;;;;16.40;99.90;;;;;;5080086;28;19995;-61
2023/05/19 08:54:15;;;;;;;;;;;16.40;99.90;;;;;;5074444;28;20654;-61
2023/05/19 08:56:44;;;;;;;;;;;16.40;99.90;;;;;;5086428;28;20083;-61
2023/05/19 08:59:10;;;;;;;;;;;16.30;99.90;;;;;;5090153;28;20296;-62
2023/05/19 09:01:36;;;;;;;;;;;16.20;99.90;;;;;;5089353;28;20383;-61
2023/05/19 09:04:02;;;;;;;;;;;16.10;99.90;;;;;;5076415;28;20377;-62
2023/05/19 09:06:31;;;;;;;;;;;16.10;99.90;;;;;;5087268;28;20042;-61
2023/05/19 09:08:56;;;;;;;;;;;16.20;99.90;;;;;;5086287;28;20375;-63
2023/05/19 09:11:51;;;;;;;;;;;16.40;99.90;;;;;;5084680;28;20307;-61
2023/05/19 09:14:20;;;;;;;;;;;16.60;99.90;;;;;;5083399;28;19997;-63
2023/05/19 09:17:04;;;;;;;;;;;16.70;99.90;;;;;;5077596;28;19996;-61
2023/05/19 09:19:32;;;;;;;;;;;16.90;99.90;;;;;;5080180;28;19978;-64
2023/05/19 09:21:59;;;;;;;;;;;17.00;99.90;;;;;;5085959;28;20060;-61
2023/05/19 09:24:25;;;;;;;;;;;17.00;99.90;;;;;;5080357;28;19996;-63
2023/05/19 09:27:20;;;;;;;;;;;17.10;99.90;;;;;;5082079;28;20859;-60
2023/05/19 09:29:47;;;;;;;;;;;17.30;99.90;;;;;;5079909;28;20011;-62
2023/05/19 09:32:23;;;;;;;;;;;17.50;99.90;;;;;;5084539;28;20005;-62
2023/05/19 09:34:49;;;;;;;;;;;17.60;99.90;;;;;;5082669;28;19980;-61
2023/05/19 09:37:15;;;;;;;;;;;17.70;99.90;;;;;;5080993;28;19985;-63
2023/05/19 09:39:47;;;;;;;;;;;17.70;99.90;;;;;;5084198;28;19995;-64
2023/05/19 09:42:13;;;;;;;;;;;17.60;99.90;;;;;;5078460;28;20080;-64
2023/05/19 09:44:40;;;;;;;;;;;17.70;99.90;;;;;;5083993;28;19989;-63
2023/05/19 09:47:08;;;;;;;;;;;17.90;99.90;;;;;;5076555;28;20125;-63
2023/05/19 09:49:34;;;;;;;;;;;18.00;99.90;;;;;;5084022;28;19981;-62
2023/05/19 09:52:02;;;;;;;;;;;18.10;99.90;;;;;;5081488;28;20100;-62
2023/05/19 09:54:30;;;;;;;;;;;18.00;99.90;;;;;;5087660;28;19989;-63
2023/05/19 09:56:59;;;;;;;;;;;18.30;99.90;;;;;;5082550;28;19989;-63
2023/05/19 09:59:26;;;;;;;;;;;18.40;99.90;;;;;;5072068;28;20052;-62
2023/05/19 10:01:55;;;;;;;;;;;18.50;99.90;;;;;;5086262;28;20019;-62
2023/05/19 10:04:25;;;;;;;;;;;18.60;99.90;;;;;;5080540;28;20390;-62
2023/05/19 10:06:54;;;;;;;;;;;18.90;99.90;;;;;;5084881;28;20054;-62
2023/05/19 10:09:24;;;;;;;;;;;18.90;99.90;;;;;;5090270;28;19988;-64
2023/05/19 10:11:53;;;;;;;;;;;19.00;99.90;;;;;;5092865;28;19985;-64
2023/05/19 10:14:22;;;;;;;;;;;18.90;99.90;;;;;;5087988;28;19989;-64
2023/05/19 10:16:49;;;;;;;;;;;18.50;99.90;;;;;;5089005;28;19981;-64
2023/05/19 10:19:15;;;;;;;;;;;18.30;99.90;;;;;;5088750;28;19981;-64
2023/05/19 10:21:41;;;;;;;;;;;18.20;99.90;;;;;;5087783;28;20417;-64
2023/05/19 10:24:06;;;;;;;;;;;18.10;99.90;;;;;;5089154;28;19985;-64
2023/05/19 10:26:32;;;;;;;;;;;18.00;99.90;;;;;;5088199;28;20461;-65
2023/05/19 10:28:58;;;;;;;;;;;17.80;99.90;;;;;;5091395;28;20424;-65
2023/05/19 10:31:24;;;;;;;;;;;17.80;99.90;;;;;;5090843;28;20040;-62
2023/05/19 10:33:59;;;;;;;;;;;17.90;99.90;;;;;;5092336;28;20252;-63
2023/05/19 10:36:46;;;;;;;;;;;17.90;99.90;;;;;;5092690;28;20000;-61
2023/05/19 10:39:24;;;;;;;;;;;17.80;99.90;;;;;;5094565;28;20028;-62
2023/05/19 10:41:56;;;;;;;;;;;17.70;99.90;;;;;;5095027;28;19981;-61
2023/05/19 10:44:40;;;;;;;;;;;17.50;99.90;;;;;;5095498;28;19988;-62
2023/05/19 10:47:07;;;;;;;;;;;17.60;99.90;;;;;;5095604;28;20470;-63
2023/05/19 10:49:36;;;;;;;;;;;17.60;99.90;;;;;;5095636;28;20125;-65
2023/05/19 10:52:02;;;;;;;;;;;17.60;99.90;;;;;;5094809;28;20006;-62
2023/05/19 10:54:42;;;;;;;;;;;17.70;99.90;;;;;;5095335;28;20032;-62
2023/05/19 10:57:08;;;;;;;;;;;17.90;99.90;;;;;;5095628;28;20051;-62
2023/05/19 10:59:36;;;;;;;;;;;18.30;99.90;;;;;;5095577;28;19985;-62
2023/05/19 11:02:05;;;;;;;;;;;18.80;99.90;;;;;;5095792;28;19985;-61
2023/05/19 11:04:38;;;;;;;;;;;19.20;99.90;;;;;;5095284;28;20352;-62
2023/05/19 11:07:04;;;;;;;;;;;19.70;99.90;;;;;;5095455;28;20005;-62
2023/05/19 11:09:32;;;;;;;;;;;20.20;99.90;;;;;;5095419;28;19989;-61
2023/05/19 11:12:02;;;;;;;;;;;20.90;99.90;;;;;;5095234;28;19988;-62
2023/05/19 11:14:28;;;;;;;;;;;21.60;99.90;;;;;;5095568;28;20046;-62
2023/05/19 11:16:57;;;;;;;;;;;22.00;99.90;;;;;;5095661;28;20333;-61
2023/05/19 11:19:29;;;;;;;;;;;22.40;99.90;;;;;;5094938;28;20401;-62
2023/05/19 11:21:56;;;;;;;;;;;22.80;99.90;;;;;;5095151;28;19985;-62
2023/05/19 11:24:36;;;;;;;;;;;23.50;99.90;;;;;;5095454;28;20397;-62
2023/05/19 11:27:21;;;;;;;;;;;24.10;98.60;;;;;;5095016;28;20115;-63
2023/05/19 11:29:47;;;;;;;;;;;23.90;95.80;;;;;;5095208;28;19989;-63
2023/05/19 11:32:13;;;;;;;;;;;24.10;96.30;;;;;;5094643;28;20496;-64
2023/05/19 11:34:38;;;;;;;;;;;23.80;93.60;;;;;;5094966;28;19981;-63
2023/05/19 11:37:05;;;;;;;;;;;23.60;94.80;;;;;;5094910;28;20007;-63
2023/05/19 11:39:31;;;;;;;;;;;23.60;95.90;;;;;;5094750;28;20418;-63
2023/05/19 11:41:57;;;;;;;;;;;24.10;96.80;;;;;;5095018;28;20035;-62
2023/05/19 11:44:22;;;;;;;;;;;24.70;96.60;;;;;;5094673;28;20371;-63
2023/05/19 11:46:48;;;;;;;;;;;25.10;94.30;;;;;;5094357;28;19981;-64
2023/05/19 11:49:14;;;;;;;;;;;25.30;92.90;;;;;;5094717;28;19989;-62
2023/05/19 11:51:42;;;;;;;;;;;25.60;92.10;;;;;;5094541;28;20378;-62
2023/05/19 11:54:09;;;;;;;;;;;25.60;91.50;;;;;;5094419;28;19993;-64
2023/05/19 11:56:38;;;;;;;;;;;25.10;89.70;;;;;;5094632;28;20343;-62
2023/05/19 11:59:03;;;;;;;;;;;25.00;87.70;;;;;;5094479;28;19988;-63
2023/05/19 12:01:30;;;;;;;;;;;25.10;90.80;;;;;;5094133;28;19981;-63
2023/05/19 12:03:56;;;;;;;;;;;25.40;90.50;;;;;;5094703;28;19985;-62
2023/05/19 12:06:22;;;;;;;;;;;25.40;88.50;;;;;;5093750;28;20446;-64
2023/05/19 12:08:49;;;;;;;;;;;25.50;87.50;;;;;;5094183;28;20397;-63
2023/05/19 12:11:15;;;;;;;;;;;25.60;84.10;;;;;;5094321;28;19981;-62
2023/05/19 12:13:40;;;;;;;;;;;24.90;86.90;;;;;;5094488;28;20075;-63
2023/05/19 12:16:07;;;;;;;;;;;24.50;85.10;;;;;;5093929;28;20007;-62
2023/05/19 12:18:35;;;;;;;;;;;24.50;91.10;;;;;;5094427;28;20035;-62
2023/05/19 12:21:01;;;;;;;;;;;24.70;90.10;;;;;;5094124;28;19981;-63
2023/05/19 12:23:29;;;;;;;;;;;25.00;87.80;;;;;;5094058;28;19985;-64
2023/05/19 12:25:58;;;;;;;;;;;25.50;87.70;;;;;;5094005;28;19984;-65
2023/05/19 12:28:23;;;;;;;;;;;25.70;88.40;;;;;;5093971;28;20101;-63
2023/05/19 12:30:50;;;;;;;;;;;25.60;79.50;;;;;;5093692;28;20431;-62
2023/05/19 12:33:17;;;;;;;;;;;25.40;80.60;;;;;;5094017;28;20001;-62
2023/05/19 12:35:43;;;;;;;;;;;25.50;81.70;;;;;;5093872;28;20020;-62
2023/05/19 12:38:08;;;;;;;;;;;25.90;80.50;;;;;;5093718;28;20106;-63
2023/05/19 12:40:34;;;;;;;;;;;26.10;86.90;;;;;;5093792;28;20007;-62
2023/05/19 12:43:00;;;;;;;;;;;26.40;79.90;;;;;;5094209;28;20043;-62
2023/05/19 12:45:26;;;;;;;;;;;26.60;80.20;;;;;;5093689;28;20471;-62
2023/05/19 12:47:52;;;;;;;;;;;26.70;80.10;;;;;;5093872;28;20009;-63
2023/05/19 12:50:18;;;;;;;;;;;26.70;75.20;;;;;;5094021;28;20462;-61
2023/05/19 12:52:44;;;;;;;;;;;26.20;78.60;;;;;;5093857;28;19981;-63
2023/05/19 12:55:10;;;;;;;;;;;26.30;81.30;;;;;;5093555;28;19985;-62
2023/05/19 12:57:37;;;;;;;;;;;26.50;79.30;;;;;;5093662;28;20032;-63
2023/05/19 13:00:12;;;;;;;;;;;26.50;76.20;;;;;;5093573;28;20017;-61
2023/05/19 13:02:58;;;;;;;;;;;26.50;77.40;;;;;;5093519;28;20035;-61
2023/05/19 13:05:24;;;;;;;;;;;26.40;76.80;;;;;;5086135;28;20020;-62
2023/05/19 13:07:53;;;;;;;;;;;26.50;83.60;;;;;;5093524;28;20417;-63
2023/05/19 13:10:19;;;;;;;;;;;26.80;82.00;;;;;;5093552;28;20436;-63
2023/05/19 13:12:44;;;;;;;;;;;27.00;80.20;;;;;;5093565;28;19981;-63
2023/05/19 13:15:10;;;;;;;;;;;27.10;77.40;;;;;;5093290;28;19981;-62
2023/05/19 13:17:36;;;;;;;;;;;26.90;74.10;;;;;;5096243;28;19989;-62
2023/05/19 13:20:02;;;;;;;;;;;26.80;80.20;;;;;;5097449;28;19984;-62
2023/05/19 13:22:28;;;;;;;;;;;27.00;74.90;;;;;;5097435;28;19982;-63
2023/05/19 13:24:57;;;;;;;;;;;26.90;74.70;;;;;;5097537;28;19988;-63
2023/05/19 13:27:23;;;;;;;;;;;27.00;74.50;;;;;;5097337;28;20012;-62
2023/05/19 13:29:49;;;;;;;;;;;27.00;75.50;;;;;;5097370;28;19992;-63
2023/05/19 13:32:15;;;;;;;;;;;27.10;74.60;;;;;;5097175;28;20448;-62
2023/05/19 13:34:40;;;;;;;;;;;27.30;75.70;;;;;;5097158;28;19989;-63
2023/05/19 13:37:08;;;;;;;;;;;27.10;71.80;;;;;;5096930;28;19985;-62
2023/05/19 13:39:34;;;;;;;;;;;26.90;74.80;;;;;;5097453;28;19996;-62
2023/05/19 13:41:59;;;;;;;;;;;26.80;71.90;;;;;;5097062;28;20430;-63
2023/05/19 13:44:25;;;;;;;;;;;26.40;71.90;;;;;;5097150;28;20072;-62
2023/05/19 13:46:50;;;;;;;;;;;25.90;75.20;;;;;;5096846;28;20443;-63
2023/05/19 13:49:16;;;;;;;;;;;26.00;74.20;;;;;;5097008;28;20034;-63
2023/05/19 13:51:42;;;;;;;;;;;26.10;77.20;;;;;;5097036;28;19988;-62
2023/05/19 13:54:08;;;;;;;;;;;26.30;73.80;;;;;;5096747;28;20027;-61
2023/05/19 13:56:34;;;;;;;;;;;26.20;75.60;;;;;;5096871;28;20031;-62
2023/05/19 13:59:00;;;;;;;;;;;26.30;74.00;;;;;;5096575;28;20016;-63
2023/05/19 14:01:25;;;;;;;;;;;26.20;73.00;;;;;;5096695;28;20003;-62
2023/05/19 14:03:51;;;;;;;;;;;26.20;72.50;;;;;;5096979;28;19985;-64
2023/05/19 14:06:16;;;;;;;;;;;26.30;76.00;;;;;;5096718;28;19998;-63
2023/05/19 14:08:42;;;;;;;;;;;26.30;72.40;;;;;;5096679;28;20371;-63
2023/05/19 14:11:07;;;;;;;;;;;26.50;73.30;;;;;;5096529;28;19985;-62
2023/05/19 14:13:33;;;;;;;;;;;26.50;74.70;;;;;;5096336;28;19981;-63
2023/05/19 14:15:58;;;;;;;;;;;26.10;72.50;;;;;;5096480;28;19988;-62
2023/05/19 14:18:25;;;;;;;;;;;25.70;75.40;;;;;;5096368;28;19987;-63